sensor_id;sensor_type;location;lat;lon;timestamp;P1;durP1;ratioP1;P2;durP2;ratioP2
48588;SDS011;34369;51.174;6.738;2024-03-25T00:01:57;44.57;;;41.13;;
48588;SDS011;34369;51.174;6.738;2024-03-25T00:05:09;44.60;;;41.30;;
48588;SDS011;34369;51.174;6.738;2024-03-25T00:08:17;45.05;;;42.00;;
48588;SDS011;34369;51.174;6.738;2024-03-25T00:11:24;45.00;;;41.70;;
48588;SDS011;34369;51.174;6.738;2024-03-25T00:14:34;43.57;;;40.57;;
48588;SDS011;34369;51.174;6.738;2024-03-25T00:17:52;44.10;;;40.87;;
48588;SDS011;34369;51.174;6.738;2024-03-25T00:20:59;45.40;;;42.20;;
48588;SDS011;34369;51.174;6.738;2024-03-25T00:24:00;45.37;;;42.13;;
48588;SDS011;34369;51.174;6.738;2024-03-25T00:26:49;47.10;;;43.67;;
48588;SDS011;34369;51.174;6.738;2024-03-25T00:30:07;47.17;;;43.77;;
48588;SDS011;34369;51.174;6.738;2024-03-25T00:33:11;45.03;;;41.83;;
48588;SDS011;34369;51.174;6.738;2024-03-25T00:36:01;44.53;;;41.27;;
48588;SDS011;34369;51.174;6.738;2024-03-25T00:39:25;43.40;;;40.43;;
48588;SDS011;34369;51.174;6.738;2024-03-25T00:42:46;44.67;;;41.63;;
48588;SDS011;34369;51.174;6.738;2024-03-25T01:00:20;45.93;;;42.83;;
48588;SDS011;34369;51.174;6.738;2024-03-25T01:03:13;44.30;;;41.07;;
48588;SDS011;34369;51.174;6.738;2024-03-25T01:06:29;44.37;;;41.03;;
48588;SDS011;34369;51.174;6.738;2024-03-25T01:09:31;46.50;;;43.30;;
48588;SDS011;34369;51.174;6.738;2024-03-25T01:12:40;45.27;;;42.10;;
48588;SDS011;34369;51.174;6.738;2024-03-25T01:16:11;47.50;;;43.63;;
48588;SDS011;34369;51.174;6.738;2024-03-25T01:19:21;46.42;;;43.63;;
48588;SDS011;34369;51.174;6.738;2024-03-25T01:22:44;46.67;;;43.27;;
48588;SDS011;34369;51.174;6.738;2024-03-25T01:25:57;45.77;;;42.37;;
48588;SDS011;34369;51.174;6.738;2024-03-25T01:29:13;46.87;;;43.17;;
48588;SDS011;34369;51.174;6.738;2024-03-25T01:35:49;45.97;;;42.43;;
48588;SDS011;34369;51.174;6.738;2024-03-25T01:39:10;44.17;;;41.03;;
48588;SDS011;34369;51.174;6.738;2024-03-25T01:42:18;47.60;;;44.45;;
48588;SDS011;34369;51.174;6.738;2024-03-25T01:49:30;45.60;;;42.27;;
48588;SDS011;34369;51.174;6.738;2024-03-25T01:52:39;48.17;;;45.37;;
48588;SDS011;34369;51.174;6.738;2024-03-25T01:56:07;45.03;;;41.97;;
48588;SDS011;34369;51.174;6.738;2024-03-25T01:59:11;48.13;;;45.23;;
48588;SDS011;34369;51.174;6.738;2024-03-25T02:02:15;44.27;;;41.03;;
48588;SDS011;34369;51.174;6.738;2024-03-25T02:05:20;44.50;;;41.30;;
48588;SDS011;34369;51.174;6.738;2024-03-25T02:08:28;46.00;;;42.73;;
48588;SDS011;34369;51.174;6.738;2024-03-25T02:11:48;47.40;;;44.33;;
48588;SDS011;34369;51.174;6.738;2024-03-25T02:14:38;44.33;;;41.23;;
48588;SDS011;34369;51.174;6.738;2024-03-25T02:17:58;46.13;;;42.97;;
48588;SDS011;34369;51.174;6.738;2024-03-25T02:21:27;47.43;;;44.50;;
48588;SDS011;34369;51.174;6.738;2024-03-25T02:24:53;45.30;;;42.10;;
48588;SDS011;34369;51.174;6.738;2024-03-25T02:32:12;46.13;;;43.00;;
48588;SDS011;34369;51.174;6.738;2024-03-25T02:35:12;48.43;;;45.43;;
48588;SDS011;34369;51.174;6.738;2024-03-25T02:38:35;46.80;;;43.60;;
48588;SDS011;34369;51.174;6.738;2024-03-25T02:42:01;48.53;;;45.50;;
48588;SDS011;34369;51.174;6.738;2024-03-25T02:48:39;45.03;;;41.80;;
48588;SDS011;34369;51.174;6.738;2024-03-25T02:51:39;44.47;;;41.23;;
48588;SDS011;34369;51.174;6.738;2024-03-25T02:54:55;47.60;;;44.57;;
48588;SDS011;34369;51.174;6.738;2024-03-25T02:58:00;45.40;;;42.03;;
48588;SDS011;34369;51.174;6.738;2024-03-25T03:08:09;47.30;;;43.67;;
48588;SDS011;34369;51.174;6.738;2024-03-25T03:11:21;45.87;;;42.87;;
48588;SDS011;34369;51.174;6.738;2024-03-25T03:14:48;48.07;;;45.00;;
48588;SDS011;34369;51.174;6.738;2024-03-25T03:18:23;45.97;;;42.87;;
48588;SDS011;34369;51.174;6.738;2024-03-25T03:21:31;46.73;;;43.77;;
48588;SDS011;34369;51.174;6.738;2024-03-25T03:24:03;46.03;;;41.97;;
48588;SDS011;34369;51.174;6.738;2024-03-25T03:26:38;46.67;;;43.27;;
48588;SDS011;34369;51.174;6.738;2024-03-25T03:29:10;48.80;;;45.80;;
48588;SDS011;34369;51.174;6.738;2024-03-25T03:31:44;45.90;;;42.57;;
48588;SDS011;34369;51.174;6.738;2024-03-25T03:34:18;47.13;;;43.37;;
48588;SDS011;34369;51.174;6.738;2024-03-25T03:36:52;48.92;;;45.75;;
48588;SDS011;34369;51.174;6.738;2024-03-25T03:39:25;47.60;;;44.27;;
48588;SDS011;34369;51.174;6.738;2024-03-25T03:41:58;49.20;;;46.03;;
48588;SDS011;34369;51.174;6.738;2024-03-25T03:44:31;48.80;;;45.60;;
48588;SDS011;34369;51.174;6.738;2024-03-25T03:47:05;47.67;;;44.27;;
48588;SDS011;34369;51.174;6.738;2024-03-25T03:49:42;48.00;;;45.30;;
48588;SDS011;34369;51.174;6.738;2024-03-25T03:52:16;45.37;;;42.17;;
48588;SDS011;34369;51.174;6.738;2024-03-25T03:54:48;47.00;;;43.47;;
48588;SDS011;34369;51.174;6.738;2024-03-25T03:57:23;46.03;;;42.83;;
48588;SDS011;34369;51.174;6.738;2024-03-25T03:59:56;47.23;;;43.80;;
48588;SDS011;34369;51.174;6.738;2024-03-25T04:02:30;47.63;;;44.43;;
48588;SDS011;34369;51.174;6.738;2024-03-25T04:05:04;48.13;;;44.80;;
48588;SDS011;34369;51.174;6.738;2024-03-25T04:07:39;47.03;;;44.13;;
48588;SDS011;34369;51.174;6.738;2024-03-25T04:10:15;44.77;;;41.73;;
48588;SDS011;34369;51.174;6.738;2024-03-25T04:12:51;47.55;;;44.55;;
48588;SDS011;34369;51.174;6.738;2024-03-25T04:15:23;45.97;;;43.00;;
48588;SDS011;34369;51.174;6.738;2024-03-25T04:17:58;45.30;;;42.30;;
48588;SDS011;34369;51.174;6.738;2024-03-25T04:20:39;45.60;;;42.60;;
48588;SDS011;34369;51.174;6.738;2024-03-25T04:23:14;46.77;;;43.30;;
48588;SDS011;34369;51.174;6.738;2024-03-25T04:25:48;46.57;;;43.20;;
48588;SDS011;34369;51.174;6.738;2024-03-25T04:28:22;47.37;;;43.70;;
48588;SDS011;34369;51.174;6.738;2024-03-25T04:30:55;48.07;;;44.47;;
48588;SDS011;34369;51.174;6.738;2024-03-25T04:33:29;46.73;;;43.60;;
48588;SDS011;34369;51.174;6.738;2024-03-25T04:36:04;46.63;;;43.87;;
48588;SDS011;34369;51.174;6.738;2024-03-25T04:38:39;46.17;;;43.20;;
48588;SDS011;34369;51.174;6.738;2024-03-25T04:41:12;47.20;;;43.70;;
48588;SDS011;34369;51.174;6.738;2024-03-25T04:43:45;47.03;;;43.63;;
48588;SDS011;34369;51.174;6.738;2024-03-25T04:46:18;45.87;;;42.77;;
48588;SDS011;34369;51.174;6.738;2024-03-25T04:48:51;47.50;;;44.00;;
48588;SDS011;34369;51.174;6.738;2024-03-25T04:51:26;47.27;;;44.23;;
48588;SDS011;34369;51.174;6.738;2024-03-25T04:54:01;48.33;;;44.57;;
48588;SDS011;34369;51.174;6.738;2024-03-25T04:56:34;49.03;;;46.13;;
48588;SDS011;34369;51.174;6.738;2024-03-25T04:59:07;47.97;;;44.50;;
48588;SDS011;34369;51.174;6.738;2024-03-25T05:01:39;46.97;;;43.80;;
48588;SDS011;34369;51.174;6.738;2024-03-25T05:04:12;46.07;;;42.87;;
48588;SDS011;34369;51.174;6.738;2024-03-25T05:06:46;46.50;;;43.10;;
48588;SDS011;34369;51.174;6.738;2024-03-25T05:09:18;49.17;;;46.37;;
48588;SDS011;34369;51.174;6.738;2024-03-25T05:11:51;47.67;;;44.40;;
48588;SDS011;34369;51.174;6.738;2024-03-25T05:14:23;44.77;;;41.67;;
48588;SDS011;34369;51.174;6.738;2024-03-25T05:16:57;48.30;;;44.57;;
48588;SDS011;34369;51.174;6.738;2024-03-25T05:19:30;48.43;;;45.63;;
48588;SDS011;34369;51.174;6.738;2024-03-25T05:22:05;46.10;;;42.83;;
48588;SDS011;34369;51.174;6.738;2024-03-25T05:24:40;49.33;;;46.10;;
48588;SDS011;34369;51.174;6.738;2024-03-25T05:27:13;48.20;;;44.90;;
48588;SDS011;34369;51.174;6.738;2024-03-25T05:29:46;48.83;;;45.47;;
48588;SDS011;34369;51.174;6.738;2024-03-25T05:32:20;48.57;;;45.27;;
48588;SDS011;34369;51.174;6.738;2024-03-25T05:34:53;48.07;;;45.17;;
48588;SDS011;34369;51.174;6.738;2024-03-25T05:37:27;48.27;;;44.83;;
48588;SDS011;34369;51.174;6.738;2024-03-25T05:40:01;47.80;;;45.00;;
48588;SDS011;34369;51.174;6.738;2024-03-25T05:42:34;49.20;;;46.40;;
48588;SDS011;34369;51.174;6.738;2024-03-25T05:45:07;48.43;;;45.13;;
48588;SDS011;34369;51.174;6.738;2024-03-25T05:47:40;48.17;;;45.27;;
48588;SDS011;34369;51.174;6.738;2024-03-25T05:50:14;48.10;;;45.30;;
48588;SDS011;34369;51.174;6.738;2024-03-25T05:52:50;48.60;;;45.40;;
48588;SDS011;34369;51.174;6.738;2024-03-25T05:55:22;49.67;;;46.42;;
48588;SDS011;34369;51.174;6.738;2024-03-25T05:57:56;47.70;;;44.87;;
48588;SDS011;34369;51.174;6.738;2024-03-25T06:00:29;48.10;;;45.30;;
48588;SDS011;34369;51.174;6.738;2024-03-25T06:03:02;46.73;;;43.20;;
48588;SDS011;34369;51.174;6.738;2024-03-25T06:05:35;46.67;;;43.53;;
48588;SDS011;34369;51.174;6.738;2024-03-25T06:08:15;49.43;;;46.00;;
48588;SDS011;34369;51.174;6.738;2024-03-25T06:10:48;51.20;;;48.10;;
48588;SDS011;34369;51.174;6.738;2024-03-25T06:13:21;50.57;;;47.20;;
48588;SDS011;34369;51.174;6.738;2024-03-25T06:15:53;49.83;;;46.47;;
48588;SDS011;34369;51.174;6.738;2024-03-25T06:18:26;47.53;;;44.30;;
48588;SDS011;34369;51.174;6.738;2024-03-25T06:20:59;48.27;;;44.87;;
48588;SDS011;34369;51.174;6.738;2024-03-25T06:23:34;49.87;;;46.87;;
48588;SDS011;34369;51.174;6.738;2024-03-25T06:26:06;50.67;;;47.57;;
48588;SDS011;34369;51.174;6.738;2024-03-25T06:28:39;48.77;;;45.90;;
48588;SDS011;34369;51.174;6.738;2024-03-25T06:31:13;51.60;;;47.90;;
48588;SDS011;34369;51.174;6.738;2024-03-25T06:34:05;50.83;;;47.83;;
48588;SDS011;34369;51.174;6.738;2024-03-25T06:36:47;48.23;;;45.43;;
48588;SDS011;34369;51.174;6.738;2024-03-25T06:39:23;47.90;;;45.03;;
48588;SDS011;34369;51.174;6.738;2024-03-25T06:41:56;47.13;;;43.87;;
48588;SDS011;34369;51.174;6.738;2024-03-25T06:44:29;47.50;;;44.33;;
48588;SDS011;34369;51.174;6.738;2024-03-25T06:47:01;48.70;;;45.60;;
48588;SDS011;34369;51.174;6.738;2024-03-25T06:49:34;48.93;;;45.43;;
48588;SDS011;34369;51.174;6.738;2024-03-25T06:52:07;50.53;;;46.93;;
48588;SDS011;34369;51.174;6.738;2024-03-25T06:54:41;49.83;;;46.53;;
48588;SDS011;34369;51.174;6.738;2024-03-25T06:57:14;47.87;;;44.80;;
48588;SDS011;34369;51.174;6.738;2024-03-25T06:59:46;45.93;;;43.00;;
48588;SDS011;34369;51.174;6.738;2024-03-25T07:02:19;45.93;;;42.77;;
48588;SDS011;34369;51.174;6.738;2024-03-25T07:04:52;46.63;;;43.23;;
48588;SDS011;34369;51.174;6.738;2024-03-25T07:07:25;47.07;;;43.63;;
48588;SDS011;34369;51.174;6.738;2024-03-25T07:10:00;45.87;;;42.60;;
48588;SDS011;34369;51.174;6.738;2024-03-25T07:12:34;43.78;;;40.45;;
48588;SDS011;34369;51.174;6.738;2024-03-25T07:15:08;47.03;;;43.67;;
48588;SDS011;34369;51.174;6.738;2024-03-25T07:17:40;44.90;;;41.73;;
48588;SDS011;34369;51.174;6.738;2024-03-25T07:20:13;42.63;;;39.63;;
48588;SDS011;34369;51.174;6.738;2024-03-25T07:22:46;42.17;;;38.97;;
48588;SDS011;34369;51.174;6.738;2024-03-25T07:25:19;42.83;;;39.73;;
48588;SDS011;34369;51.174;6.738;2024-03-25T07:27:52;43.17;;;39.97;;
48588;SDS011;34369;51.174;6.738;2024-03-25T07:30:25;44.23;;;41.13;;
48588;SDS011;34369;51.174;6.738;2024-03-25T07:32:58;43.17;;;39.87;;
48588;SDS011;34369;51.174;6.738;2024-03-25T07:35:33;43.60;;;40.53;;
48588;SDS011;34369;51.174;6.738;2024-03-25T07:38:05;42.70;;;39.50;;
48588;SDS011;34369;51.174;6.738;2024-03-25T07:40:40;42.40;;;39.37;;
48588;SDS011;34369;51.174;6.738;2024-03-25T07:43:13;42.93;;;39.87;;
48588;SDS011;34369;51.174;6.738;2024-03-25T07:45:46;41.87;;;39.07;;
48588;SDS011;34369;51.174;6.738;2024-03-25T07:48:18;42.07;;;39.17;;
48588;SDS011;34369;51.174;6.738;2024-03-25T07:50:50;42.22;;;38.83;;
48588;SDS011;34369;51.174;6.738;2024-03-25T07:53:24;40.47;;;37.53;;
48588;SDS011;34369;51.174;6.738;2024-03-25T07:55:58;40.00;;;37.10;;
48588;SDS011;34369;51.174;6.738;2024-03-25T07:58:33;40.83;;;37.95;;
48588;SDS011;34369;51.174;6.738;2024-03-25T08:01:07;40.05;;;37.17;;
48588;SDS011;34369;51.174;6.738;2024-03-25T08:03:39;41.83;;;38.80;;
48588;SDS011;34369;51.174;6.738;2024-03-25T08:06:14;42.33;;;39.42;;
48588;SDS011;34369;51.174;6.738;2024-03-25T08:08:48;40.67;;;37.93;;
48588;SDS011;34369;51.174;6.738;2024-03-25T08:11:24;41.10;;;37.97;;
48588;SDS011;34369;51.174;6.738;2024-03-25T08:13:58;41.75;;;38.75;;
48588;SDS011;34369;51.174;6.738;2024-03-25T08:16:30;41.42;;;38.65;;
48588;SDS011;34369;51.174;6.738;2024-03-25T08:19:03;40.47;;;37.85;;
48588;SDS011;34369;51.174;6.738;2024-03-25T08:21:37;39.42;;;36.58;;
48588;SDS011;34369;51.174;6.738;2024-03-25T08:24:09;38.92;;;36.30;;
48588;SDS011;34369;51.174;6.738;2024-03-25T08:26:47;39.38;;;36.58;;
48588;SDS011;34369;51.174;6.738;2024-03-25T08:29:20;39.38;;;36.55;;
48588;SDS011;34369;51.174;6.738;2024-03-25T08:31:53;38.88;;;36.05;;
48588;SDS011;34369;51.174;6.738;2024-03-25T08:34:26;39.70;;;36.67;;
48588;SDS011;34369;51.174;6.738;2024-03-25T08:36:59;39.17;;;36.22;;
48588;SDS011;34369;51.174;6.738;2024-03-25T08:39:34;40.33;;;37.42;;
48588;SDS011;34369;51.174;6.738;2024-03-25T08:42:09;39.15;;;36.40;;
48588;SDS011;34369;51.174;6.738;2024-03-25T08:44:42;38.70;;;35.90;;
48588;SDS011;34369;51.174;6.738;2024-03-25T08:47:14;38.83;;;36.22;;
48588;SDS011;34369;51.174;6.738;2024-03-25T08:49:47;39.63;;;36.92;;
48588;SDS011;34369;51.174;6.738;2024-03-25T08:52:20;40.10;;;37.17;;
48588;SDS011;34369;51.174;6.738;2024-03-25T08:54:54;38.97;;;36.17;;
48588;SDS011;34369;51.174;6.738;2024-03-25T08:57:27;38.42;;;35.67;;
48588;SDS011;34369;51.174;6.738;2024-03-25T09:00:00;37.45;;;34.72;;
48588;SDS011;34369;51.174;6.738;2024-03-25T09:02:33;36.88;;;34.17;;
48588;SDS011;34369;51.174;6.738;2024-03-25T09:05:07;37.42;;;34.42;;
48588;SDS011;34369;51.174;6.738;2024-03-25T09:07:40;35.08;;;32.67;;
48588;SDS011;34369;51.174;6.738;2024-03-25T09:10:12;36.33;;;33.63;;
48588;SDS011;34369;51.174;6.738;2024-03-25T09:13:04;35.35;;;32.65;;
48588;SDS011;34369;51.174;6.738;2024-03-25T09:15:37;36.33;;;33.15;;
48588;SDS011;34369;51.174;6.738;2024-03-25T09:18:09;35.72;;;33.03;;
48588;SDS011;34369;51.174;6.738;2024-03-25T09:20:42;33.55;;;31.15;;
48588;SDS011;34369;51.174;6.738;2024-03-25T09:23:15;35.28;;;32.78;;
48588;SDS011;34369;51.174;6.738;2024-03-25T09:25:51;34.55;;;31.92;;
48588;SDS011;34369;51.174;6.738;2024-03-25T09:30:57;37.17;;;34.30;;
48588;SDS011;34369;51.174;6.738;2024-03-25T09:33:31;38.60;;;35.80;;
48588;SDS011;34369;51.174;6.738;2024-03-25T09:36:04;37.08;;;34.30;;
48588;SDS011;34369;51.174;6.738;2024-03-25T09:38:37;37.90;;;34.90;;
48588;SDS011;34369;51.174;6.738;2024-03-25T09:41:10;36.05;;;33.53;;
48588;SDS011;34369;51.174;6.738;2024-03-25T09:43:44;36.22;;;33.47;;
48588;SDS011;34369;51.174;6.738;2024-03-25T09:46:23;36.10;;;33.50;;
48588;SDS011;34369;51.174;6.738;2024-03-25T09:48:57;36.50;;;33.83;;
48588;SDS011;34369;51.174;6.738;2024-03-25T09:51:30;36.88;;;34.28;;
48588;SDS011;34369;51.174;6.738;2024-03-25T09:54:02;38.00;;;35.30;;
48588;SDS011;34369;51.174;6.738;2024-03-25T09:56:38;39.13;;;36.20;;
48588;SDS011;34369;51.174;6.738;2024-03-25T09:59:13;39.20;;;36.40;;
48588;SDS011;34369;51.174;6.738;2024-03-25T10:01:45;39.15;;;36.15;;
48588;SDS011;34369;51.174;6.738;2024-03-25T10:04:19;39.38;;;36.58;;
48588;SDS011;34369;51.174;6.738;2024-03-25T10:06:52;40.35;;;37.35;;
48588;SDS011;34369;51.174;6.738;2024-03-25T10:09:24;40.38;;;37.28;;
48588;SDS011;34369;51.174;6.738;2024-03-25T10:11:58;39.20;;;36.40;;
48588;SDS011;34369;51.174;6.738;2024-03-25T10:14:32;41.38;;;38.13;;
48588;SDS011;34369;51.174;6.738;2024-03-25T10:17:05;40.40;;;37.42;;
48588;SDS011;34369;51.174;6.738;2024-03-25T10:19:37;39.60;;;36.42;;
48588;SDS011;34369;51.174;6.738;2024-03-25T10:22:11;39.42;;;36.72;;
48588;SDS011;34369;51.174;6.738;2024-03-25T10:24:45;38.65;;;35.78;;
48588;SDS011;34369;51.174;6.738;2024-03-25T10:27:18;40.03;;;37.13;;
48588;SDS011;34369;51.174;6.738;2024-03-25T10:29:54;39.85;;;36.95;;
48588;SDS011;34369;51.174;6.738;2024-03-25T10:32:27;39.90;;;36.95;;
48588;SDS011;34369;51.174;6.738;2024-03-25T10:34:59;39.33;;;36.63;;
48588;SDS011;34369;51.174;6.738;2024-03-25T10:37:32;38.90;;;36.03;;
48588;SDS011;34369;51.174;6.738;2024-03-25T10:40:06;40.63;;;37.83;;
48588;SDS011;34369;51.174;6.738;2024-03-25T10:42:42;39.38;;;36.53;;
48588;SDS011;34369;51.174;6.738;2024-03-25T10:45:24;39.17;;;36.45;;
48588;SDS011;34369;51.174;6.738;2024-03-25T10:47:57;39.83;;;36.88;;
48588;SDS011;34369;51.174;6.738;2024-03-25T10:50:33;38.22;;;35.63;;
48588;SDS011;34369;51.174;6.738;2024-03-25T10:53:08;38.05;;;35.28;;
48588;SDS011;34369;51.174;6.738;2024-03-25T10:55:42;38.00;;;35.42;;
48588;SDS011;34369;51.174;6.738;2024-03-25T10:58:15;39.45;;;36.75;;
48588;SDS011;34369;51.174;6.738;2024-03-25T11:00:51;37.67;;;35.10;;
48588;SDS011;34369;51.174;6.738;2024-03-25T11:03:25;37.45;;;34.88;;
48588;SDS011;34369;51.174;6.738;2024-03-25T11:05:59;36.63;;;34.22;;
48588;SDS011;34369;51.174;6.738;2024-03-25T11:08:32;37.85;;;35.17;;
48588;SDS011;34369;51.174;6.738;2024-03-25T11:11:06;37.15;;;34.55;;
48588;SDS011;34369;51.174;6.738;2024-03-25T11:13:39;36.63;;;34.03;;
48588;SDS011;34369;51.174;6.738;2024-03-25T11:16:25;35.95;;;33.65;;
48588;SDS011;34369;51.174;6.738;2024-03-25T11:19:01;35.97;;;33.50;;
48588;SDS011;34369;51.174;6.738;2024-03-25T11:21:34;37.28;;;34.72;;
48588;SDS011;34369;51.174;6.738;2024-03-25T11:24:06;36.85;;;34.25;;
48588;SDS011;34369;51.174;6.738;2024-03-25T11:26:42;35.33;;;32.83;;
48588;SDS011;34369;51.174;6.738;2024-03-25T11:29:14;35.83;;;32.85;;
48588;SDS011;34369;51.174;6.738;2024-03-25T11:31:49;37.83;;;35.25;;
48588;SDS011;34369;51.174;6.738;2024-03-25T11:34:24;36.92;;;34.28;;
48588;SDS011;34369;51.174;6.738;2024-03-25T11:36:57;36.60;;;34.00;;
48588;SDS011;34369;51.174;6.738;2024-03-25T11:39:37;35.97;;;33.38;;
48588;SDS011;34369;51.174;6.738;2024-03-25T11:42:11;35.88;;;33.33;;
48588;SDS011;34369;51.174;6.738;2024-03-25T11:44:45;35.47;;;32.90;;
48588;SDS011;34369;51.174;6.738;2024-03-25T11:47:20;35.90;;;33.28;;
48588;SDS011;34369;51.174;6.738;2024-03-25T11:49:53;35.67;;;33.10;;
48588;SDS011;34369;51.174;6.738;2024-03-25T11:52:29;35.92;;;33.45;;
48588;SDS011;34369;51.174;6.738;2024-03-25T11:57:35;34.70;;;32.30;;
48588;SDS011;34369;51.174;6.738;2024-03-25T12:00:08;33.72;;;31.45;;
48588;SDS011;34369;51.174;6.738;2024-03-25T12:02:44;33.53;;;31.13;;
48588;SDS011;34369;51.174;6.738;2024-03-25T12:05:16;32.97;;;30.77;;
48588;SDS011;34369;51.174;6.738;2024-03-25T12:07:49;31.40;;;29.30;;
48588;SDS011;34369;51.174;6.738;2024-03-25T12:10:22;31.90;;;29.70;;
48588;SDS011;34369;51.174;6.738;2024-03-25T12:13:15;31.13;;;29.00;;
48588;SDS011;34369;51.174;6.738;2024-03-25T12:15:48;31.50;;;29.30;;
48588;SDS011;34369;51.174;6.738;2024-03-25T12:18:23;31.58;;;29.48;;
48588;SDS011;34369;51.174;6.738;2024-03-25T12:20:56;30.83;;;28.60;;
48588;SDS011;34369;51.174;6.738;2024-03-25T12:23:29;31.33;;;29.10;;
48588;SDS011;34369;51.174;6.738;2024-03-25T12:26:03;30.20;;;28.10;;
48588;SDS011;34369;51.174;6.738;2024-03-25T12:28:37;30.70;;;28.60;;
48588;SDS011;34369;51.174;6.738;2024-03-25T12:31:10;30.80;;;28.60;;
48588;SDS011;34369;51.174;6.738;2024-03-25T12:33:48;30.50;;;28.30;;
48588;SDS011;34369;51.174;6.738;2024-03-25T12:36:20;30.48;;;28.23;;
48588;SDS011;34369;51.174;6.738;2024-03-25T12:38:56;29.85;;;27.83;;
48588;SDS011;34369;51.174;6.738;2024-03-25T12:41:29;30.35;;;28.30;;
48588;SDS011;34369;51.174;6.738;2024-03-25T12:44:02;30.38;;;28.23;;
48588;SDS011;34369;51.174;6.738;2024-03-25T12:46:34;29.25;;;27.15;;
48588;SDS011;34369;51.174;6.738;2024-03-25T12:49:08;30.52;;;28.33;;
48588;SDS011;34369;51.174;6.738;2024-03-25T12:51:41;29.60;;;27.50;;
48588;SDS011;34369;51.174;6.738;2024-03-25T12:54:13;29.67;;;27.58;;
48588;SDS011;34369;51.174;6.738;2024-03-25T12:56:46;29.77;;;27.67;;
48588;SDS011;34369;51.174;6.738;2024-03-25T12:59:18;30.00;;;28.00;;
48588;SDS011;34369;51.174;6.738;2024-03-25T13:01:51;30.38;;;28.38;;
48588;SDS011;34369;51.174;6.738;2024-03-25T13:04:25;31.55;;;29.45;;
48588;SDS011;34369;51.174;6.738;2024-03-25T13:06:59;30.90;;;28.75;;
48588;SDS011;34369;51.174;6.738;2024-03-25T13:09:31;31.65;;;29.50;;
48588;SDS011;34369;51.174;6.738;2024-03-25T13:12:04;31.05;;;28.95;;
48588;SDS011;34369;51.174;6.738;2024-03-25T13:14:37;32.58;;;30.30;;
48588;SDS011;34369;51.174;6.738;2024-03-25T13:17:10;32.05;;;29.80;;
48588;SDS011;34369;51.174;6.738;2024-03-25T13:19:44;31.67;;;29.60;;
48588;SDS011;34369;51.174;6.738;2024-03-25T13:22:16;32.25;;;30.15;;
48588;SDS011;34369;51.174;6.738;2024-03-25T13:24:48;31.45;;;29.45;;
48588;SDS011;34369;51.174;6.738;2024-03-25T13:27:21;31.40;;;29.30;;
48588;SDS011;34369;51.174;6.738;2024-03-25T13:29:54;30.83;;;28.73;;
48588;SDS011;34369;51.174;6.738;2024-03-25T13:32:26;29.23;;;27.17;;
48588;SDS011;34369;51.174;6.738;2024-03-25T13:35:01;28.98;;;26.98;;
48588;SDS011;34369;51.174;6.738;2024-03-25T13:37:34;27.75;;;25.75;;
48588;SDS011;34369;51.174;6.738;2024-03-25T13:40:07;27.27;;;25.38;;
48588;SDS011;34369;51.174;6.738;2024-03-25T13:42:41;26.92;;;25.13;;
48588;SDS011;34369;51.174;6.738;2024-03-25T13:45:13;26.10;;;24.30;;
48588;SDS011;34369;51.174;6.738;2024-03-25T13:47:47;26.63;;;24.73;;
48588;SDS011;34369;51.174;6.738;2024-03-25T13:50:21;26.80;;;24.85;;
48588;SDS011;34369;51.174;6.738;2024-03-25T13:52:53;25.98;;;24.23;;
48588;SDS011;34369;51.174;6.738;2024-03-25T13:55:26;26.60;;;24.70;;
48588;SDS011;34369;51.174;6.738;2024-03-25T13:57:59;26.95;;;25.08;;
48588;SDS011;34369;51.174;6.738;2024-03-25T14:00:32;26.40;;;24.45;;
48588;SDS011;34369;51.174;6.738;2024-03-25T14:03:05;26.38;;;24.38;;
48588;SDS011;34369;51.174;6.738;2024-03-25T14:05:39;26.27;;;24.38;;
48588;SDS011;34369;51.174;6.738;2024-03-25T14:08:11;26.95;;;24.88;;
48588;SDS011;34369;51.174;6.738;2024-03-25T14:10:43;25.58;;;23.88;;
48588;SDS011;34369;51.174;6.738;2024-03-25T14:13:16;27.15;;;25.05;;
48588;SDS011;34369;51.174;6.738;2024-03-25T14:15:49;26.73;;;24.92;;
48588;SDS011;34369;51.174;6.738;2024-03-25T14:18:21;27.77;;;25.65;;
48588;SDS011;34369;51.174;6.738;2024-03-25T14:20:56;27.45;;;25.45;;
48588;SDS011;34369;51.174;6.738;2024-03-25T14:23:30;27.52;;;25.52;;
48588;SDS011;34369;51.174;6.738;2024-03-25T14:26:02;28.70;;;26.60;;
48588;SDS011;34369;51.174;6.738;2024-03-25T14:28:36;27.88;;;25.98;;
48588;SDS011;34369;51.174;6.738;2024-03-25T14:31:11;27.52;;;25.73;;
48588;SDS011;34369;51.174;6.738;2024-03-25T14:33:45;28.33;;;26.42;;
48588;SDS011;34369;51.174;6.738;2024-03-25T14:36:19;28.60;;;26.60;;
48588;SDS011;34369;51.174;6.738;2024-03-25T14:38:52;28.58;;;26.58;;
48588;SDS011;34369;51.174;6.738;2024-03-25T14:41:26;29.33;;;27.33;;
48588;SDS011;34369;51.174;6.738;2024-03-25T14:43:58;29.50;;;27.40;;
48588;SDS011;34369;51.174;6.738;2024-03-25T14:46:30;29.58;;;27.50;;
48588;SDS011;34369;51.174;6.738;2024-03-25T14:49:03;30.23;;;28.13;;
48588;SDS011;34369;51.174;6.738;2024-03-25T14:51:37;30.48;;;28.48;;
48588;SDS011;34369;51.174;6.738;2024-03-25T14:54:09;30.17;;;28.17;;
48588;SDS011;34369;51.174;6.738;2024-03-25T14:56:42;31.10;;;28.85;;
48588;SDS011;34369;51.174;6.738;2024-03-25T14:59:14;30.50;;;28.50;;
48588;SDS011;34369;51.174;6.738;2024-03-25T15:01:47;31.23;;;29.20;;
48588;SDS011;34369;51.174;6.738;2024-03-25T15:04:19;31.48;;;29.38;;
48588;SDS011;34369;51.174;6.738;2024-03-25T15:06:52;31.55;;;29.33;;
48588;SDS011;34369;51.174;6.738;2024-03-25T15:09:25;31.63;;;29.42;;
48588;SDS011;34369;51.174;6.738;2024-03-25T15:11:57;31.02;;;29.02;;
48588;SDS011;34369;51.174;6.738;2024-03-25T15:14:30;32.25;;;29.95;;
48588;SDS011;34369;51.174;6.738;2024-03-25T15:17:03;32.42;;;30.15;;
48588;SDS011;34369;51.174;6.738;2024-03-25T15:19:35;32.53;;;30.42;;
48588;SDS011;34369;51.174;6.738;2024-03-25T15:22:10;32.78;;;30.67;;
48588;SDS011;34369;51.174;6.738;2024-03-25T15:24:42;31.65;;;29.60;;
48588;SDS011;34369;51.174;6.738;2024-03-25T15:27:14;32.53;;;30.27;;
48588;SDS011;34369;51.174;6.738;2024-03-25T15:29:46;32.85;;;30.65;;
48588;SDS011;34369;51.174;6.738;2024-03-25T15:32:19;33.08;;;30.88;;
48588;SDS011;34369;51.174;6.738;2024-03-25T15:34:52;33.30;;;31.15;;
48588;SDS011;34369;51.174;6.738;2024-03-25T15:37:26;32.95;;;30.75;;
48588;SDS011;34369;51.174;6.738;2024-03-25T15:39:59;32.55;;;30.50;;
48588;SDS011;34369;51.174;6.738;2024-03-25T15:42:33;32.45;;;30.38;;
48588;SDS011;34369;51.174;6.738;2024-03-25T15:45:05;33.70;;;31.55;;
48588;SDS011;34369;51.174;6.738;2024-03-25T15:47:38;33.50;;;31.40;;
48588;SDS011;34369;51.174;6.738;2024-03-25T15:50:11;33.53;;;31.30;;
48588;SDS011;34369;51.174;6.738;2024-03-25T15:52:49;33.15;;;30.88;;
48588;SDS011;34369;51.174;6.738;2024-03-25T15:55:23;33.42;;;31.17;;
48588;SDS011;34369;51.174;6.738;2024-03-25T15:57:55;33.20;;;31.00;;
48588;SDS011;34369;51.174;6.738;2024-03-25T16:00:33;33.97;;;31.77;;
48588;SDS011;34369;51.174;6.738;2024-03-25T16:03:05;33.17;;;31.08;;
48588;SDS011;34369;51.174;6.738;2024-03-25T16:05:38;32.58;;;30.48;;
48588;SDS011;34369;51.174;6.738;2024-03-25T16:08:12;33.47;;;31.02;;
48588;SDS011;34369;51.174;6.738;2024-03-25T16:10:45;33.83;;;31.63;;
48588;SDS011;34369;51.174;6.738;2024-03-25T16:13:18;33.40;;;31.20;;